createdAt,value
2018-09-22T00:00:09.679Z,99.99
2018-09-22T00:01:09.706Z,99.99
2018-09-22T00:02:09.732Z,99.99
2018-09-22T00:03:09.759Z,99.99
2018-09-22T00:04:09.785Z,99.99
2018-09-22T00:05:09.813Z,99.99
2018-09-22T00:06:09.838Z,99.99
2018-09-22T00:07:09.865Z,99.99
2018-09-22T00:08:09.892Z,99.99
2018-09-22T00:09:09.919Z,99.99
2018-09-22T00:10:09.944Z,99.99
2018-09-22T00:11:09.971Z,99.99
2018-09-22T00:12:09.997Z,99.99
2018-09-22T00:13:10.026Z,99.99
2018-09-22T00:14:10.051Z,99.99
2018-09-22T00:15:10.077Z,99.99
2018-09-22T00:16:10.104Z,99.99
2018-09-22T00:17:10.132Z,99.99
2018-09-22T00:18:10.156Z,99.99
2018-09-22T00:19:10.183Z,99.99
2018-09-22T00:20:10.211Z,99.99
2018-09-22T00:21:10.237Z,99.99
2018-09-22T00:22:10.264Z,99.99
2018-09-22T00:23:10.292Z,99.99
2018-09-22T00:24:10.316Z,99.99
2018-09-22T00:25:10.342Z,99.99
2018-09-22T00:26:10.369Z,99.99
2018-09-22T00:27:10.448Z,99.99
2018-09-22T00:28:10.422Z,99.99
2018-09-22T00:29:10.449Z,99.99
2018-09-22T00:30:10.475Z,99.99
2018-09-22T00:31:10.502Z,99.99
2018-09-22T00:32:10.528Z,99.99
2018-09-22T00:33:10.554Z,99.99
2018-09-22T00:34:10.581Z,99.99
2018-09-22T00:35:10.607Z,99.99
2018-09-22T00:36:10.634Z,99.99
2018-09-22T00:37:10.675Z,99.99
2018-09-22T00:38:10.686Z,99.99
2018-09-22T00:39:10.715Z,99.99
2018-09-22T00:40:10.739Z,99.99
2018-09-22T00:41:10.768Z,99.99
2018-09-22T00:42:10.792Z,99.99
2018-09-22T00:43:10.821Z,99.99
2018-09-22T00:44:10.857Z,99.99
2018-09-22T00:45:10.875Z,99.99
2018-09-22T00:46:10.897Z,99.99
2018-09-22T00:47:10.925Z,99.99
2018-09-22T00:48:11.101Z,99.99
2018-09-22T00:49:10.978Z,99.99
2018-09-22T00:50:11.003Z,99.99
2018-09-22T00:51:11.037Z,99.99
2018-09-22T00:52:11.057Z,99.99
2018-09-22T00:53:11.097Z,99.99
2018-09-22T00:54:11.112Z,99.99
2018-09-22T00:55:11.136Z,99.99
2018-09-22T00:56:11.162Z,99.99
2018-09-22T00:57:11.189Z,99.99
2018-09-22T00:58:11.216Z,99.99
2018-09-22T00:59:11.242Z,99.99
2018-09-22T01:00:11.269Z,99.99
2018-09-22T01:01:11.295Z,99.99
2018-09-22T01:02:11.321Z,99.99
2018-09-22T01:03:11.347Z,99.99
2018-09-22T01:04:11.375Z,99.99
2018-09-22T01:05:11.401Z,99.99
2018-09-22T01:06:11.429Z,99.99
2018-09-22T01:07:11.454Z,99.99
2018-09-22T01:08:11.498Z,99.99
2018-09-22T01:09:11.507Z,99.99
2018-09-22T01:10:11.532Z,99.99
2018-09-22T01:11:11.559Z,99.99
2018-09-22T01:12:11.587Z,99.99
2018-09-22T01:13:11.613Z,99.99
2018-09-22T01:14:11.640Z,99.99
2018-09-22T01:15:11.666Z,99.99
2018-09-22T01:16:11.694Z,99.99
2018-09-22T01:17:11.720Z,99.99
2018-09-22T01:18:11.745Z,99.99
2018-09-22T01:19:11.771Z,99.99
2018-09-22T01:20:11.798Z,99.99
2018-09-22T01:21:11.825Z,99.99
2018-09-22T01:22:11.852Z,99.99
2018-09-22T01:23:11.894Z,99.99
2018-09-22T01:24:11.905Z,99.99
2018-09-22T01:25:11.930Z,99.99
2018-09-22T01:26:11.960Z,99.99
2018-09-22T01:27:11.982Z,99.99
2018-09-22T01:28:12.009Z,99.99
2018-09-22T01:29:12.036Z,99.99
2018-09-22T01:30:12.061Z,99.99
2018-09-22T01:31:12.089Z,99.99
2018-09-22T01:32:12.114Z,99.99
2018-09-22T01:33:12.141Z,99.99
2018-09-22T01:34:12.166Z,99.99
2018-09-22T01:35:12.194Z,99.99
2018-09-22T01:36:12.219Z,99.99
2018-09-22T01:37:12.246Z,99.99
2018-09-22T01:38:12.274Z,99.99
2018-09-22T01:39:12.301Z,99.99
2018-09-22T01:40:12.326Z,99.99
2018-09-22T01:41:12.357Z,99.99
2018-09-22T01:42:12.377Z,99.99
2018-09-22T01:43:12.418Z,99.99
2018-09-22T01:44:12.444Z,99.99
2018-09-22T01:45:12.459Z,99.99
2018-09-22T01:46:12.483Z,99.99
2018-09-22T01:47:12.509Z,99.99
2018-09-22T01:48:12.536Z,99.99
2018-09-22T01:49:12.562Z,99.99
2018-09-22T01:50:12.589Z,99.99
2018-09-22T01:51:12.615Z,99.99
2018-09-22T01:52:12.643Z,99.99
2018-09-22T01:53:12.668Z,99.99
2018-09-22T01:54:12.695Z,99.99
2018-09-22T01:55:12.723Z,99.99
2018-09-22T01:56:12.747Z,99.99
2018-09-22T01:57:12.775Z,99.99
2018-09-22T01:58:13.002Z,99.99
2018-09-22T01:59:12.827Z,99.99
2018-09-22T02:00:12.852Z,99.99
2018-09-22T02:01:12.879Z,99.99
2018-09-22T02:02:12.905Z,99.99
2018-09-22T02:03:12.932Z,99.99
2018-09-22T02:04:12.958Z,99.99
2018-09-22T02:05:12.984Z,99.99
2018-09-22T02:06:13.010Z,99.99
2018-09-22T02:07:13.036Z,99.99
2018-09-22T02:08:13.080Z,99.99
2018-09-22T02:09:13.089Z,99.99
2018-09-22T02:10:13.115Z,99.99
2018-09-22T02:11:13.141Z,99.99
2018-09-22T02:12:13.167Z,99.99
2018-09-22T02:13:13.194Z,99.99
2018-09-22T02:14:13.270Z,99.99
2018-09-22T02:15:13.245Z,99.99
2018-09-22T02:16:13.272Z,99.99
2018-09-22T02:17:13.299Z,99.99
2018-09-22T02:18:13.325Z,99.99
2018-09-22T02:19:13.350Z,99.99
2018-09-22T02:20:13.377Z,99.99
2018-09-22T02:21:13.403Z,99.99
2018-09-22T02:22:13.431Z,99.99
2018-09-22T02:23:13.455Z,99.99
2018-09-22T02:24:13.482Z,99.99
2018-09-22T02:25:13.508Z,99.99
2018-09-22T02:26:13.533Z,99.99
2018-09-22T02:27:13.563Z,99.99
2018-09-22T02:28:13.589Z,99.99
2018-09-22T02:29:13.612Z,99.99
2018-09-22T02:31:21.247Z,99.99
2018-09-22T02:32:21.272Z,99.99
2018-09-22T02:33:21.298Z,99.99
2018-09-22T02:34:21.333Z,99.99
2018-09-22T02:35:21.351Z,99.99
2018-09-22T02:36:21.376Z,99.99
2018-09-22T02:37:21.401Z,99.99
2018-09-22T02:38:21.429Z,99.99
2018-09-22T02:39:21.453Z,99.99
2018-09-22T02:40:21.491Z,99.99
2018-09-22T02:41:21.504Z,99.99
2018-09-22T02:42:21.530Z,99.99
2018-09-22T02:43:21.559Z,99.99
2018-09-22T02:45:04.140Z,99.99
2018-09-22T02:46:04.160Z,99.99
2018-09-22T02:47:04.185Z,99.99
2018-09-22T02:48:04.211Z,99.99
2018-09-22T02:49:04.246Z,99.99
2018-09-22T02:50:04.264Z,99.99
2018-09-22T02:51:04.290Z,99.99
2018-09-22T02:52:04.316Z,99.99
2018-09-22T02:53:04.344Z,99.99
2018-09-22T02:54:04.374Z,99.99
2018-09-22T02:55:04.396Z,99.99
2018-09-22T02:56:04.421Z,99.99
2018-09-22T02:57:04.449Z,99.99
2018-09-22T02:58:04.473Z,99.99
2018-09-22T02:59:04.500Z,99.99
2018-09-22T03:00:04.526Z,99.99
2018-09-22T03:01:04.551Z,99.99
2018-09-22T03:02:04.578Z,99.99
2018-09-22T03:03:04.608Z,99.99
2018-09-22T03:04:04.636Z,99.99
2018-09-22T03:05:04.656Z,99.99
2018-09-22T03:06:04.683Z,99.99
2018-09-22T03:07:04.710Z,99.99
2018-09-22T03:08:04.736Z,99.99
2018-09-22T03:09:04.763Z,99.99
2018-09-22T03:10:04.838Z,99.99
2018-09-22T03:11:04.815Z,99.99
2018-09-22T03:12:04.840Z,99.99
2018-09-22T03:13:04.868Z,99.99
2018-09-22T03:14:04.907Z,99.99
2018-09-22T03:15:04.919Z,99.99
2018-09-22T03:16:04.945Z,99.99
2018-09-22T03:17:04.976Z,99.99
2018-09-22T03:18:04.999Z,99.99
2018-09-22T03:19:05.025Z,99.99
2018-09-22T03:20:05.051Z,99.99
2018-09-22T03:21:05.076Z,99.99
2018-09-22T03:22:05.104Z,99.99
2018-09-22T03:23:05.132Z,99.99
2018-09-22T03:24:05.157Z,99.99
2018-09-22T03:25:07.805Z,99.99
2018-09-22T03:26:05.210Z,99.99
2018-09-22T03:27:05.233Z,99.99
2018-09-22T03:28:05.259Z,99.99
2018-09-22T03:29:05.290Z,99.99
2018-09-22T03:30:05.319Z,99.99
2018-09-22T03:31:05.339Z,99.99
2018-09-22T03:32:05.373Z,99.99
2018-09-22T03:33:05.392Z,99.99
2018-09-22T03:34:05.418Z,99.99
2018-09-22T03:35:05.446Z,99.99
2018-09-22T03:36:05.472Z,99.99
2018-09-22T03:37:05.497Z,99.99
2018-09-22T03:38:05.523Z,99.99
2018-09-22T03:39:05.550Z,99.99
2018-09-22T03:40:05.574Z,99.99
2018-09-22T03:41:05.602Z,99.99
2018-09-22T03:42:05.631Z,99.99
2018-09-22T03:43:05.654Z,99.99
2018-09-22T03:44:05.679Z,99.99
2018-09-22T03:45:05.706Z,99.99
2018-09-22T03:46:05.733Z,99.99
2018-09-22T03:47:05.788Z,99.99
2018-09-22T03:48:53.347Z,99.99
2018-09-22T03:49:53.386Z,99.99
2018-09-22T03:50:53.398Z,99.99
2018-09-22T03:51:53.424Z,99.99
2018-09-22T03:52:53.451Z,99.99
2018-09-22T03:53:53.480Z,99.99
2018-09-22T03:54:53.502Z,99.99
2018-09-22T03:55:53.528Z,99.99
2018-09-22T03:56:53.555Z,99.99
2018-09-22T03:57:53.582Z,99.99
2018-09-22T03:58:53.608Z,99.99
2018-09-22T03:59:53.634Z,99.99
2018-09-22T04:00:53.660Z,99.99
2018-09-22T04:01:53.688Z,99.99
2018-09-22T04:02:53.711Z,99.99
2018-09-22T04:03:53.738Z,99.99
2018-09-22T04:04:53.765Z,99.99
2018-09-22T04:05:53.791Z,99.99
2018-09-22T04:06:53.826Z,99.99
2018-09-22T04:07:53.848Z,99.99
2018-09-22T04:08:53.870Z,99.99
2018-09-22T04:09:53.897Z,99.99
2018-09-22T04:10:53.921Z,99.99
2018-09-22T04:11:53.949Z,99.99
2018-09-22T04:12:53.974Z,99.99
2018-09-22T04:13:54.000Z,99.99
2018-09-22T04:14:54.026Z,99.99
2018-09-22T04:15:54.053Z,99.99
2018-09-22T04:16:54.079Z,99.99
2018-09-22T04:17:54.106Z,99.99
2018-09-22T04:18:54.130Z,99.99
2018-09-22T04:19:54.158Z,99.99
2018-09-22T04:20:54.184Z,99.99
2018-09-22T04:21:54.212Z,99.99
2018-09-22T04:22:54.239Z,99.99
2018-09-22T04:23:54.262Z,99.99
2018-09-22T04:24:54.313Z,99.99
2018-09-22T04:25:54.315Z,99.99
2018-09-22T04:26:54.341Z,99.99
2018-09-22T04:27:54.367Z,99.99
2018-09-22T04:28:54.394Z,99.99
2018-09-22T04:29:54.420Z,99.99
2018-09-22T04:30:54.445Z,99.99
2018-09-22T04:31:54.482Z,99.99
2018-09-22T04:32:54.499Z,99.99
2018-09-22T04:33:54.527Z,99.99
2018-09-22T04:34:54.550Z,99.99
2018-09-22T04:35:54.579Z,99.99
2018-09-22T04:36:54.604Z,99.99
2018-09-22T04:37:54.629Z,99.99
2018-09-22T04:38:54.656Z,99.99
2018-09-22T04:39:54.683Z,99.99
2018-09-22T04:40:54.708Z,99.99
2018-09-22T04:41:54.736Z,99.99
2018-09-22T04:42:54.761Z,99.99
2018-09-22T04:43:54.786Z,99.99
2018-09-22T04:44:54.813Z,99.99
2018-09-22T04:45:54.840Z,99.99
2018-09-22T04:46:54.865Z,99.99
2018-09-22T04:47:54.892Z,99.99
2018-09-22T04:48:54.919Z,99.99
2018-09-22T04:49:54.945Z,99.99
2018-09-22T04:50:54.972Z,99.99
2018-09-22T04:51:54.997Z,99.99
2018-09-22T04:52:55.023Z,99.99
2018-09-22T04:53:55.050Z,99.99
2018-09-22T04:54:55.075Z,99.99
2018-09-22T04:55:55.102Z,99.99
2018-09-22T04:56:55.128Z,99.99
2018-09-22T04:57:55.155Z,99.99
2018-09-22T04:58:55.181Z,99.99
2018-09-22T04:59:55.209Z,99.99
2018-09-22T05:00:55.233Z,99.99
2018-09-22T05:01:55.260Z,99.99
2018-09-22T05:02:55.285Z,99.99
2018-09-22T05:03:55.312Z,99.99
2018-09-22T05:04:55.341Z,99.99
2018-09-22T05:05:55.366Z,99.99
2018-09-22T05:06:55.390Z,99.99
2018-09-22T05:07:55.417Z,99.99
2018-09-22T05:08:55.762Z,99.99
2018-09-22T05:09:55.470Z,99.99
2018-09-22T05:10:55.495Z,99.99
2018-09-22T05:11:55.521Z,99.99
2018-09-22T05:12:55.548Z,99.99
2018-09-22T05:13:55.575Z,99.99
2018-09-22T05:14:55.600Z,99.99
2018-09-22T05:15:55.626Z,99.99
2018-09-22T05:16:55.693Z,99.99
2018-09-22T05:17:55.682Z,99.99
2018-09-22T05:18:55.704Z,99.99
2018-09-22T05:19:55.734Z,99.99
2018-09-22T05:20:55.758Z,99.99
2018-09-22T05:21:55.788Z,99.99
2018-09-22T05:22:55.811Z,99.99
2018-09-22T05:23:55.837Z,99.99
2018-09-22T05:24:55.863Z,99.99
2018-09-22T05:25:55.892Z,99.99
2018-09-22T05:26:55.915Z,99.99
2018-09-22T05:27:55.942Z,99.99
2018-09-22T05:28:55.970Z,99.99
2018-09-22T05:29:55.998Z,99.99
2018-09-22T05:30:56.024Z,99.99
2018-09-22T05:31:56.048Z,99.99
2018-09-22T05:32:56.073Z,99.99
2018-09-22T05:33:56.102Z,99.99
2018-09-22T05:34:56.127Z,99.99
2018-09-22T05:35:56.153Z,99.99
2018-09-22T05:36:56.196Z,99.99
2018-09-22T05:37:56.205Z,99.99
2018-09-22T05:38:56.233Z,99.99
2018-09-22T05:39:56.260Z,99.99
2018-09-22T05:40:56.285Z,99.99
2018-09-22T05:41:56.311Z,99.99
2018-09-22T05:42:56.337Z,99.99
2018-09-22T05:43:56.363Z,99.99
2018-09-22T05:44:56.390Z,99.99
2018-09-22T05:45:56.416Z,99.99
2018-09-22T05:46:56.445Z,99.99
2018-09-22T05:47:56.469Z,99.99
2018-09-22T05:48:56.496Z,99.99
2018-09-22T05:49:56.522Z,99.99
2018-09-22T05:50:56.548Z,99.99
2018-09-22T05:51:56.574Z,99.99
2018-09-22T05:52:56.601Z,99.99
2018-09-22T05:53:56.628Z,99.99
2018-09-22T05:54:56.654Z,99.99
2018-09-22T05:55:56.680Z,99.99
2018-09-22T05:56:56.766Z,99.99
2018-09-22T05:57:56.755Z,99.99
2018-09-22T05:58:56.772Z,99.99
2018-09-22T05:59:56.794Z,99.99
2018-09-22T06:00:56.819Z,99.99
2018-09-22T06:01:56.846Z,99.99
2018-09-22T06:02:56.872Z,99.99
2018-09-22T06:03:57.093Z,99.99
2018-09-22T06:04:56.922Z,99.99
2018-09-22T06:05:56.949Z,99.99
2018-09-22T06:06:56.977Z,99.99
2018-09-22T06:07:57.007Z,99.99
2018-09-22T06:08:57.031Z,99.99
2018-09-22T06:09:57.057Z,99.99
2018-09-22T06:10:57.083Z,99.99
2018-09-22T06:11:57.122Z,99.99
2018-09-22T06:12:57.135Z,99.99
2018-09-22T06:13:57.161Z,99.99
2018-09-22T06:14:57.188Z,99.99
2018-09-22T06:15:57.214Z,99.99
2018-09-22T06:16:57.241Z,99.99
2018-09-22T06:17:57.268Z,99.99
2018-09-22T06:18:57.297Z,99.99
2018-09-22T06:19:57.320Z,99.99
2018-09-22T06:20:57.349Z,99.99
2018-09-22T06:21:57.377Z,99.99
2018-09-22T06:22:57.437Z,99.99
2018-09-22T06:23:57.428Z,99.99
2018-09-22T06:24:57.455Z,99.99
2018-09-22T06:25:57.481Z,99.99
2018-09-22T06:26:57.506Z,99.99
2018-09-22T06:27:57.533Z,99.99
2018-09-22T06:28:57.569Z,99.99
2018-09-22T06:29:57.587Z,99.99
2018-09-22T06:30:57.615Z,99.99
2018-09-22T06:31:57.640Z,99.99
2018-09-22T06:32:57.668Z,99.99
2018-09-22T06:33:57.695Z,99.99
2018-09-22T06:34:57.721Z,99.99
2018-09-22T06:35:57.748Z,99.99
2018-09-22T06:36:57.776Z,99.99
2018-09-22T06:37:57.803Z,99.99
2018-09-22T06:38:57.826Z,99.99
2018-09-22T06:39:57.856Z,99.99
2018-09-22T06:40:57.882Z,99.99
2018-09-22T06:41:57.914Z,99.99
2018-09-22T06:42:57.936Z,99.99
2018-09-22T06:43:57.963Z,99.99
2018-09-22T06:44:57.991Z,99.99
2018-09-22T06:45:58.017Z,99.99
2018-09-22T06:46:58.044Z,99.99
2018-09-22T06:47:58.070Z,99.99
2018-09-22T06:48:58.098Z,99.99
2018-09-22T06:49:58.126Z,99.99
2018-09-22T06:50:58.149Z,99.99
2018-09-22T06:51:58.178Z,99.99
2018-09-22T06:52:58.209Z,99.99
2018-09-22T06:54:00.856Z,99.99
2018-09-22T06:54:58.299Z,99.99
2018-09-22T06:55:58.285Z,99.99
2018-09-22T06:56:58.311Z,99.99
2018-09-22T06:57:58.338Z,99.99
2018-09-22T06:58:58.364Z,99.99
2018-09-22T06:59:58.391Z,99.99
2018-09-22T07:00:58.440Z,99.99
2018-09-22T07:01:58.446Z,99.99
2018-09-22T07:02:58.473Z,99.99
2018-09-22T07:03:58.506Z,99.99
2018-09-22T07:04:58.528Z,99.99
2018-09-22T07:05:58.572Z,99.99
2018-09-22T07:06:58.580Z,99.99
2018-09-22T07:07:58.608Z,99.99
2018-09-22T07:08:58.635Z,99.99
2018-09-22T07:09:58.664Z,99.99
2018-09-22T07:10:58.688Z,99.99
2018-09-22T07:11:58.714Z,99.99
2018-09-22T07:12:58.743Z,99.99
2018-09-22T07:13:58.847Z,99.99
2018-09-22T07:14:58.795Z,99.99
2018-09-22T07:15:58.823Z,99.99
2018-09-22T07:16:58.849Z,99.99
2018-09-22T07:17:58.876Z,99.99
2018-09-22T07:18:58.904Z,99.99
2018-09-22T07:19:58.932Z,99.99
2018-09-22T07:20:58.958Z,99.99
2018-09-22T07:21:58.986Z,99.99
2018-09-22T07:22:59.055Z,99.99
2018-09-22T07:23:59.038Z,99.99
2018-09-22T07:24:59.065Z,99.99
2018-09-22T07:25:59.093Z,99.99
2018-09-22T07:26:59.119Z,99.99
2018-09-22T07:27:59.149Z,99.99
2018-09-22T07:28:59.176Z,99.99
2018-09-22T07:29:59.202Z,99.99
2018-09-22T07:30:59.295Z,99.96
2018-09-22T07:31:59.256Z,99.57
2018-09-22T07:32:59.287Z,99.62
2018-09-22T07:33:59.315Z,99.99
2018-09-22T07:34:59.338Z,99.38
2018-09-22T07:35:59.369Z,99.14
2018-09-22T07:36:59.394Z,99.71
2018-09-22T07:37:59.424Z,99.81
2018-09-22T07:38:59.471Z,99.99
2018-09-22T07:39:59.477Z,99.99
2018-09-22T07:40:59.507Z,99.99
2018-09-22T07:41:59.538Z,99.99
2018-09-22T07:42:59.562Z,99.48
2018-09-22T07:43:59.591Z,98.81
2018-09-22T07:44:59.618Z,97.33
2018-09-22T07:45:59.644Z,96.03
2018-09-22T07:46:59.673Z,95.84
2018-09-22T07:47:59.703Z,96.47
2018-09-22T07:49:00.055Z,95.61
2018-09-22T07:49:59.756Z,94.93
2018-09-22T07:50:59.785Z,94.26
2018-09-22T07:51:59.811Z,94.07
2018-09-22T07:52:59.840Z,93.83
2018-09-22T07:53:59.869Z,93.50
2018-09-22T07:54:59.896Z,93.40
2018-09-22T07:55:59.925Z,93.07
2018-09-22T07:56:59.999Z,91.72
2018-09-22T07:57:59.989Z,89.86
2018-09-22T07:59:00.015Z,89.23
2018-09-22T08:00:00.041Z,91.10
2018-09-22T08:01:00.069Z,91.82
2018-09-22T08:02:00.098Z,92.58
2018-09-22T08:03:00.128Z,91.96
2018-09-22T08:04:00.154Z,89.18
2018-09-22T08:05:00.184Z,90.48
2018-09-22T08:06:00.214Z,92.58
2018-09-22T08:07:00.243Z,93.16
2018-09-22T08:08:00.271Z,92.15
2018-09-22T08:09:00.300Z,89.95
2018-09-22T08:10:00.331Z,88.80
2018-09-22T08:11:00.358Z,88.99
2018-09-22T08:12:00.389Z,88.17
2018-09-22T08:13:00.417Z,86.58
2018-09-22T08:14:00.447Z,84.23
2018-09-22T08:15:00.474Z,83.85
2018-09-22T08:16:00.509Z,84.19
2018-09-22T08:17:00.542Z,84.04
2018-09-22T08:18:00.565Z,83.91
2018-09-22T08:19:00.596Z,85.11
2018-09-22T08:20:00.627Z,85.88
2018-09-22T08:21:00.659Z,86.07
2018-09-22T08:22:00.690Z,87.46
2018-09-22T08:23:00.714Z,88.32
2018-09-22T08:24:00.745Z,89.57
2018-09-22T08:25:00.777Z,89.57
2018-09-22T08:26:00.808Z,89.04
2018-09-22T08:27:00.837Z,89.18
2018-09-22T08:28:00.868Z,88.03
2018-09-22T08:29:00.898Z,86.93
2018-09-22T08:30:01.250Z,86.16
2018-09-22T08:31:00.961Z,85.88
2018-09-22T08:32:01.032Z,86.64
2018-09-22T08:33:01.022Z,85.88
2018-09-22T08:34:01.049Z,85.39
2018-09-22T08:35:01.078Z,85.11
2018-09-22T08:36:01.144Z,83.81
2018-09-22T08:37:01.260Z,83.85
2018-09-22T08:38:01.169Z,82.35
2018-09-22T08:39:01.200Z,80.97
2018-09-22T08:40:01.231Z,81.45
2018-09-22T08:41:01.262Z,81.59
2018-09-22T08:42:01.290Z,80.09
2018-09-22T08:43:01.323Z,78.61
2018-09-22T08:44:01.391Z,80.30
2018-09-22T08:45:01.497Z,80.53
2018-09-22T08:46:01.414Z,78.17
2018-09-22T08:47:01.444Z,78.08
2018-09-22T08:48:01.478Z,76.77
2018-09-22T08:49:01.508Z,75.56
2018-09-22T08:50:01.566Z,73.61
2018-09-22T08:51:01.573Z,72.23
2018-09-22T08:52:01.603Z,74.08
2018-09-22T08:53:01.637Z,76.15
2018-09-22T08:54:01.669Z,77.65
2018-09-22T08:55:01.699Z,77.94
2018-09-22T08:56:01.731Z,80.01
2018-09-22T08:57:01.767Z,80.15
2018-09-22T08:58:01.819Z,77.98
2018-09-22T08:59:01.828Z,77.78
2018-09-22T09:00:01.861Z,78.32
2018-09-22T09:01:01.894Z,79.19
2018-09-22T09:02:01.929Z,79.57
2018-09-22T09:03:01.959Z,77.98
2018-09-22T09:04:01.992Z,76.04
2018-09-22T09:05:02.098Z,73.83
2018-09-22T09:06:02.059Z,74.37
2018-09-22T09:07:02.091Z,77.21
2018-09-22T09:08:02.124Z,79.38
2018-09-22T09:09:02.160Z,80.40
2018-09-22T09:10:02.191Z,82.18
2018-09-22T09:11:02.218Z,83.86
2018-09-22T09:12:02.255Z,83.52
2018-09-22T09:13:02.303Z,83.91
2018-09-22T09:14:02.332Z,83.52
2018-09-22T09:15:02.347Z,84.44
2018-09-22T09:16:02.379Z,85.01
2018-09-22T09:17:02.472Z,84.72
2018-09-22T09:18:02.446Z,84.86
2018-09-22T09:19:02.477Z,84.19
2018-09-22T09:20:02.506Z,83.42
2018-09-22T09:21:02.540Z,83.81
2018-09-22T09:22:02.572Z,84.48
2018-09-22T09:23:02.601Z,84.00
2018-09-22T09:24:02.635Z,84.63
2018-09-22T09:25:02.666Z,84.95
2018-09-22T09:26:02.693Z,84.82
2018-09-22T09:27:02.724Z,84.44
2018-09-22T09:28:02.755Z,84.82
2018-09-22T09:29:02.786Z,84.82
2018-09-22T09:30:02.817Z,85.11
2018-09-22T09:31:02.846Z,85.11
2018-09-22T09:32:02.896Z,85.88
2018-09-22T09:33:02.909Z,84.72
2018-09-22T09:34:02.941Z,84.63
2018-09-22T09:35:02.969Z,84.38
2018-09-22T09:36:02.999Z,84.05
2018-09-22T09:37:03.031Z,84.68
2018-09-22T09:38:03.060Z,86.12
2018-09-22T09:39:03.090Z,86.41
2018-09-22T09:40:03.118Z,85.58
2018-09-22T09:41:03.151Z,85.21
2018-09-22T09:42:03.181Z,84.00
2018-09-22T09:43:03.210Z,83.61
2018-09-22T09:44:03.239Z,84.05
2018-09-22T09:45:03.270Z,84.00
2018-09-22T09:46:03.299Z,84.34
2018-09-22T09:47:03.328Z,85.11
2018-09-22T09:48:03.358Z,85.11
2018-09-22T09:49:03.389Z,86.41
2018-09-22T09:50:03.418Z,86.50
2018-09-22T09:51:03.451Z,86.98
2018-09-22T09:52:03.477Z,86.25
2018-09-22T09:53:03.509Z,85.30
2018-09-22T09:54:03.538Z,84.91
2018-09-22T09:55:03.568Z,84.72
2018-09-22T09:56:03.595Z,84.44
2018-09-22T09:57:03.626Z,84.44
2018-09-22T09:58:03.656Z,84.82
2018-09-22T09:59:03.704Z,85.11
2018-09-22T10:00:03.713Z,85.01
2018-09-22T10:01:03.744Z,85.88
2018-09-22T10:02:03.774Z,85.39
2018-09-22T10:03:03.801Z,85.88
2018-09-22T10:04:03.831Z,84.95
2018-09-22T10:05:03.867Z,84.58
2018-09-22T10:06:03.894Z,84.38
2018-09-22T10:07:03.926Z,84.95
2018-09-22T10:08:03.948Z,84.34
2018-09-22T10:09:03.997Z,84.58
2018-09-22T10:10:04.009Z,83.91
2018-09-22T10:11:04.038Z,83.27
2018-09-22T10:12:04.067Z,81.35
2018-09-22T10:13:04.095Z,80.53
2018-09-22T10:14:04.125Z,78.52
2018-09-22T10:15:04.154Z,78.42
2018-09-22T10:16:04.188Z,77.31
2018-09-22T10:17:04.213Z,77.31
2018-09-22T10:18:04.252Z,76.92
2018-09-22T10:19:04.275Z,77.11
2018-09-22T10:20:04.329Z,77.11
2018-09-22T10:21:04.334Z,77.65
2018-09-22T10:22:04.363Z,78.32
2018-09-22T10:23:04.394Z,79.09
2018-09-22T10:24:04.424Z,79.47
2018-09-22T10:25:04.452Z,79.82
2018-09-22T10:26:04.483Z,79.28
2018-09-22T10:27:04.514Z,77.98
2018-09-22T10:28:04.591Z,76.19
2018-09-22T10:29:04.576Z,76.00
2018-09-22T10:30:04.604Z,74.92
2018-09-22T10:31:04.638Z,72.17
2018-09-22T10:32:04.988Z,71.46
2018-09-22T10:33:04.696Z,73.41
2018-09-22T10:34:04.729Z,73.11
2018-09-22T10:35:04.757Z,72.07
2018-09-22T10:36:04.787Z,69.79
2018-09-22T10:37:04.820Z,68.44
2018-09-22T10:38:04.854Z,68.41
2018-09-22T10:39:04.895Z,70.40
2018-09-22T10:40:04.911Z,70.62
2018-09-22T10:41:04.945Z,72.12
2018-09-22T10:42:05.036Z,73.37
2018-09-22T10:43:05.005Z,74.19
2018-09-22T10:44:05.037Z,75.15
2018-09-22T10:45:05.069Z,75.82
2018-09-22T10:46:05.100Z,75.89
2018-09-22T10:47:05.130Z,76.75
2018-09-22T10:48:05.162Z,76.94
2018-09-22T10:49:05.193Z,77.04
2018-09-22T10:50:05.226Z,77.33
2018-09-22T10:51:05.257Z,76.84
2018-09-22T10:52:05.288Z,77.04
2018-09-22T10:53:05.430Z,77.80
2018-09-22T10:54:05.350Z,77.23
2018-09-22T10:55:05.380Z,76.94
2018-09-22T10:56:05.431Z,76.56
2018-09-22T10:57:05.442Z,76.27
2018-09-22T10:58:05.470Z,76.12
2018-09-22T10:59:05.501Z,75.73
2018-09-22T11:00:05.551Z,73.91
2018-09-22T11:01:05.562Z,73.52
2018-09-22T11:02:05.592Z,74.16
2018-09-22T11:03:05.624Z,75.40
2018-09-22T11:04:05.672Z,75.25
2018-09-22T11:05:05.684Z,75.06
2018-09-22T11:06:05.713Z,74.77
2018-09-22T11:07:05.743Z,73.72
2018-09-22T11:08:05.773Z,74.10
2018-09-22T11:09:05.822Z,74.29
2018-09-22T11:10:05.835Z,72.60
2018-09-22T11:11:05.863Z,71.45
2018-09-22T11:12:05.893Z,69.98
2018-09-22T11:13:05.924Z,68.63
2018-09-22T11:14:05.956Z,68.02
2018-09-22T11:15:05.983Z,67.74
2018-09-22T11:16:06.015Z,67.93
2018-09-22T11:17:06.044Z,67.83
2018-09-22T11:18:06.074Z,66.77
2018-09-22T11:19:06.104Z,66.68
2018-09-22T11:20:06.135Z,66.97
2018-09-22T11:21:06.168Z,66.30
2018-09-22T11:22:06.197Z,66.84
2018-09-22T11:23:06.225Z,67.19
2018-09-22T11:24:06.257Z,68.34
2018-09-22T11:25:06.287Z,69.07
2018-09-22T11:26:06.316Z,68.88
2018-09-22T11:27:06.347Z,69.65
2018-09-22T11:28:06.379Z,69.74
2018-09-22T11:29:06.407Z,69.56
2018-09-22T11:30:06.439Z,69.65
2018-09-22T11:31:06.486Z,69.36
2018-09-22T11:32:06.499Z,68.53
2018-09-22T11:33:06.528Z,68.73
2018-09-22T11:34:06.556Z,67.76
2018-09-22T11:35:06.586Z,67.19
2018-09-22T11:36:06.638Z,67.83
2018-09-22T11:37:06.648Z,68.98
2018-09-22T11:38:06.679Z,68.98
2018-09-22T11:39:06.707Z,68.98
2018-09-22T11:40:06.734Z,69.07
2018-09-22T11:41:06.766Z,69.33
2018-09-22T11:42:06.802Z,69.26
2018-09-22T11:43:06.870Z,69.46
2018-09-22T11:44:06.858Z,68.53
2018-09-22T11:45:06.886Z,68.79
2018-09-22T11:46:06.940Z,68.15
2018-09-22T11:47:06.941Z,67.86
2018-09-22T11:48:07.027Z,67.19
2018-09-22T11:49:07.001Z,67.38
2018-09-22T11:50:07.033Z,66.46
2018-09-22T11:51:07.059Z,65.88
2018-09-22T11:52:07.094Z,65.40
2018-09-22T11:53:07.123Z,64.76
2018-09-22T11:54:07.149Z,64.05
2018-09-22T11:55:07.180Z,64.72
2018-09-22T11:56:07.230Z,65.49
2018-09-22T11:57:07.239Z,65.78
2018-09-22T11:58:07.269Z,65.49
2018-09-22T11:59:07.303Z,65.75
2018-09-22T12:00:07.327Z,65.84
2018-09-22T12:01:07.363Z,65.08
2018-09-22T12:02:07.392Z,65.84
2018-09-22T12:03:07.417Z,65.40
2018-09-22T12:04:07.445Z,64.72
2018-09-22T12:05:07.475Z,63.96
2018-09-22T12:06:07.594Z,63.96
2018-09-22T12:07:07.537Z,64.79
2018-09-22T12:08:07.564Z,64.98
2018-09-22T12:09:07.595Z,64.82
2018-09-22T12:10:07.626Z,64.05
2018-09-22T12:11:07.654Z,64.15
2018-09-22T12:12:07.689Z,64.82
2018-09-22T12:13:07.716Z,65.69
2018-09-22T12:14:07.765Z,65.59
2018-09-22T12:15:07.774Z,65.23
2018-09-22T12:16:07.803Z,64.76
2018-09-22T12:17:07.832Z,64.76
2018-09-22T12:18:07.861Z,64.09
2018-09-22T12:19:07.891Z,64.05
2018-09-22T12:20:07.923Z,64.05
2018-09-22T12:21:07.953Z,64.05
2018-09-22T12:22:07.985Z,63.64
2018-09-22T12:23:08.012Z,64.89
2018-09-22T12:24:08.042Z,65.17
2018-09-22T12:25:08.077Z,66.03
2018-09-22T12:26:08.102Z,66.23
2018-09-22T12:27:08.134Z,65.75
2018-09-22T12:28:08.160Z,66.13
2018-09-22T12:29:08.192Z,65.75
2018-09-22T12:30:08.219Z,65.75
2018-09-22T12:31:08.250Z,66.23
2018-09-22T12:32:08.608Z,65.56
2018-09-22T12:33:08.313Z,66.33
2018-09-22T12:34:08.340Z,66.42
2018-09-22T12:35:08.367Z,67.19
2018-09-22T12:36:08.396Z,67.16
2018-09-22T12:37:08.427Z,67.63
2018-09-22T12:38:08.461Z,67.92
2018-09-22T12:39:08.499Z,67.92
2018-09-22T12:40:08.515Z,68.08
2018-09-22T12:41:08.547Z,68.69
2018-09-22T12:42:08.579Z,68.69
2018-09-22T12:43:08.604Z,68.02
2018-09-22T12:44:08.632Z,68.02
2018-09-22T12:45:08.664Z,68.08
2018-09-22T12:46:08.708Z,68.21
2018-09-22T12:47:08.723Z,67.41
2018-09-22T12:48:08.752Z,67.79
2018-09-22T12:49:08.784Z,68.46
2018-09-22T12:50:08.808Z,68.27
2018-09-22T12:51:08.837Z,68.02
2018-09-22T12:52:08.866Z,68.12
2018-09-22T12:53:08.897Z,67.83
2018-09-22T12:54:08.943Z,68.21
2018-09-22T12:55:08.954Z,68.21